createdAt,value
2022-09-30T00:01:11.016Z,74.80
2022-09-30T00:03:37.773Z,74.80
2022-09-30T00:06:08.712Z,75.00
2022-09-30T00:08:39.622Z,75.30
2022-09-30T00:11:13.688Z,75.30
2022-09-30T00:13:41.029Z,75.60
2022-09-30T00:16:10.457Z,75.50
2022-09-30T00:18:39.247Z,75.70
2022-09-30T00:21:07.315Z,75.60
2022-09-30T00:23:36.534Z,75.70
2022-09-30T00:26:07.415Z,75.70
2022-09-30T00:28:35.158Z,76.20
2022-09-30T00:31:07.345Z,75.80
2022-09-30T00:33:35.613Z,76.10
2022-09-30T00:36:02.989Z,76.00
2022-09-30T00:38:30.369Z,76.00
2022-09-30T00:40:57.853Z,76.00
2022-09-30T00:43:51.553Z,76.20
2022-09-30T00:46:44.286Z,77.70
2022-09-30T00:49:24.298Z,77.50
2022-09-30T00:51:56.972Z,76.90
2022-09-30T00:54:31.443Z,76.80
2022-09-30T00:57:03.946Z,77.00
2022-09-30T00:59:42.220Z,76.90
2022-09-30T01:02:10.686Z,77.40
2022-09-30T01:04:38.141Z,76.90
2022-09-30T01:07:08.406Z,76.90
2022-09-30T01:09:42.454Z,77.20
2022-09-30T01:12:16.497Z,77.50
2022-09-30T01:14:47.061Z,77.20
2022-09-30T01:17:44.602Z,78.00
2022-09-30T01:20:40.317Z,77.50
2022-09-30T01:23:43.047Z,77.40
2022-09-30T01:26:46.756Z,77.60
2022-09-30T01:29:51.076Z,77.70
2022-09-30T01:32:45.185Z,78.00
2022-09-30T01:35:36.655Z,77.90
2022-09-30T01:38:29.346Z,78.00
2022-09-30T01:41:18.379Z,78.00
2022-09-30T01:44:09.111Z,77.90
2022-09-30T01:46:53.262Z,78.00
2022-09-30T01:49:48.829Z,77.80
2022-09-30T01:52:44.841Z,78.50
2022-09-30T01:55:29.231Z,77.70
2022-09-30T01:58:17.172Z,78.00
2022-09-30T02:00:52.531Z,78.10
2022-09-30T02:03:29.547Z,77.60
2022-09-30T02:06:08.544Z,77.70
2022-09-30T02:08:48.555Z,78.10
2022-09-30T02:11:29.856Z,78.30
2022-09-30T02:14:06.587Z,78.30
2022-09-30T02:16:48.517Z,77.70
2022-09-30T02:19:40.752Z,78.10
2022-09-30T02:22:24.523Z,78.70
2022-09-30T02:25:00.950Z,78.10
2022-09-30T02:27:42.264Z,77.90
2022-09-30T02:30:12.688Z,78.30
2022-09-30T02:32:51.425Z,78.00
2022-09-30T02:35:29.659Z,78.20
2022-09-30T02:38:12.519Z,78.30
2022-09-30T02:40:50.725Z,78.40
2022-09-30T02:43:20.888Z,78.40
2022-09-30T02:46:07.020Z,78.20
2022-09-30T02:48:49.679Z,78.40
2022-09-30T02:51:33.889Z,78.60
2022-09-30T02:54:34.995Z,79.00
2022-09-30T02:57:27.042Z,78.50
2022-09-30T02:59:53.971Z,78.20
2022-09-30T03:02:21.589Z,77.80
2022-09-30T03:04:51.874Z,77.80
2022-09-30T03:07:19.173Z,78.20
2022-09-30T03:09:46.021Z,78.00
2022-09-30T03:13:05.992Z,78.00
2022-09-30T03:16:15.287Z,79.00
2022-09-30T03:19:13.879Z,78.90
2022-09-30T03:22:06.620Z,78.40
2022-09-30T03:25:31.584Z,78.70
2022-09-30T03:28:20.831Z,79.30
2022-09-30T03:31:22.983Z,79.10
2022-09-30T03:34:05.228Z,79.50
2022-09-30T03:36:47.101Z,79.00
2022-09-30T03:39:24.811Z,79.10
2022-09-30T03:42:10.759Z,78.70
2022-09-30T03:44:57.921Z,79.50
2022-09-30T03:47:27.414Z,79.50
2022-09-30T03:50:00.393Z,79.10
2022-09-30T03:52:30.941Z,79.20
2022-09-30T03:55:05.551Z,79.00
2022-09-30T03:57:32.277Z,79.30
2022-09-30T03:59:59.694Z,79.80
2022-09-30T04:02:28.074Z,79.00
2022-09-30T04:04:55.281Z,79.10
2022-09-30T04:07:22.117Z,79.00
2022-09-30T04:09:48.904Z,79.10
2022-09-30T04:12:15.859Z,79.00
2022-09-30T04:14:42.563Z,79.00
2022-09-30T04:17:09.806Z,78.90
2022-09-30T04:19:40.005Z,78.90
2022-09-30T04:22:10.594Z,78.80
2022-09-30T04:24:39.343Z,79.20
2022-09-30T04:27:06.089Z,78.90
2022-09-30T04:29:32.802Z,78.90
2022-09-30T04:32:00.118Z,79.00
2022-09-30T04:34:27.045Z,79.00
2022-09-30T04:36:53.767Z,79.10
2022-09-30T04:39:20.791Z,79.10
2022-09-30T04:41:47.556Z,79.10
2022-09-30T04:44:14.326Z,79.10
2022-09-30T04:46:41.107Z,79.20
2022-09-30T04:49:09.468Z,79.20
2022-09-30T04:51:38.369Z,79.50
2022-09-30T04:54:05.555Z,79.60
2022-09-30T04:56:33.028Z,79.60
2022-09-30T04:58:59.982Z,79.60
2022-09-30T05:01:26.869Z,79.70
2022-09-30T05:03:54.705Z,79.60
2022-09-30T05:06:21.682Z,79.80
2022-09-30T05:08:49.020Z,79.70
2022-09-30T05:11:19.424Z,79.70
2022-09-30T05:13:47.544Z,80.00
2022-09-30T05:16:15.722Z,79.80
2022-09-30T05:18:45.836Z,79.90
2022-09-30T05:21:16.163Z,79.80
2022-09-30T05:23:43.077Z,80.00
2022-09-30T05:26:12.507Z,79.80
2022-09-30T05:28:41.407Z,79.80
2022-09-30T05:31:08.453Z,79.80
2022-09-30T05:33:35.939Z,79.80
2022-09-30T05:36:06.537Z,79.80
2022-09-30T05:38:33.829Z,79.90
2022-09-30T05:41:11.779Z,79.80
2022-09-30T05:43:42.278Z,80.20
2022-09-30T05:46:09.110Z,80.00
2022-09-30T05:48:36.126Z,79.90
2022-09-30T05:51:03.561Z,80.00
2022-09-30T05:53:34.388Z,80.10
2022-09-30T05:56:01.753Z,80.10
2022-09-30T05:58:29.194Z,80.10
2022-09-30T06:00:55.968Z,80.10
2022-09-30T06:03:23.151Z,80.00
2022-09-30T06:05:57.166Z,80.00
2022-09-30T06:08:24.474Z,80.20
2022-09-30T06:10:52.246Z,80.60
2022-09-30T06:13:20.746Z,79.50
2022-09-30T06:16:02.261Z,79.60
2022-09-30T06:18:31.083Z,80.10
2022-09-30T06:21:05.077Z,79.60
2022-09-30T06:23:35.287Z,79.90
2022-09-30T06:26:05.971Z,80.10
2022-09-30T06:28:35.833Z,79.30
2022-09-30T06:31:04.881Z,79.20
2022-09-30T06:33:32.120Z,79.10
2022-09-30T06:35:59.509Z,79.00
2022-09-30T06:38:28.751Z,79.00
2022-09-30T06:40:56.668Z,78.90
2022-09-30T06:43:23.389Z,78.90
2022-09-30T06:45:51.564Z,78.80
2022-09-30T06:48:33.197Z,78.70
2022-09-30T06:51:02.637Z,78.70
2022-09-30T06:53:29.914Z,78.70
2022-09-30T06:55:57.983Z,78.70
2022-09-30T06:58:25.578Z,78.70
2022-09-30T07:01:06.525Z,78.70
2022-09-30T07:03:35.811Z,78.80
2022-09-30T07:06:06.239Z,78.50
2022-09-30T07:08:36.468Z,78.50
2022-09-30T07:11:14.888Z,78.40
2022-09-30T07:13:47.012Z,78.40
2022-09-30T07:16:16.321Z,78.20
2022-09-30T07:18:45.049Z,78.10
2022-09-30T07:21:15.850Z,78.10
2022-09-30T07:23:48.259Z,77.90
2022-09-30T07:26:18.719Z,77.80
2022-09-30T07:28:46.499Z,77.70
2022-09-30T07:31:32.445Z,77.60
2022-09-30T07:34:01.461Z,77.50
2022-09-30T07:36:32.752Z,77.40
2022-09-30T07:39:05.805Z,77.10
2022-09-30T07:41:36.539Z,77.00
2022-09-30T07:44:06.676Z,76.90
2022-09-30T07:46:36.185Z,76.90
2022-09-30T07:49:08.738Z,76.80
2022-09-30T07:51:39.104Z,76.60
2022-09-30T07:54:14.583Z,76.40
2022-09-30T07:57:09.666Z,76.50
2022-09-30T07:59:33.153Z,77.10
2022-09-30T08:02:00.372Z,76.50
2022-09-30T08:04:27.866Z,76.20
2022-09-30T08:07:00.657Z,76.20
2022-09-30T08:09:30.003Z,76.20
2022-09-30T08:11:57.375Z,76.10
2022-09-30T08:14:27.494Z,76.10
2022-09-30T08:16:56.828Z,76.00
2022-09-30T08:19:25.258Z,75.90
2022-09-30T08:21:55.889Z,76.50
2022-09-30T08:24:24.473Z,75.70
2022-09-30T08:26:52.342Z,75.60
2022-09-30T08:29:35.738Z,75.50
2022-09-30T08:32:07.211Z,75.40
2022-09-30T08:34:35.835Z,75.20
2022-09-30T08:37:07.752Z,75.10
2022-09-30T08:39:39.114Z,75.00
2022-09-30T08:42:37.897Z,75.00
2022-09-30T08:45:40.211Z,74.70
2022-09-30T08:48:45.974Z,74.60
2022-09-30T08:51:30.189Z,74.30
2022-09-30T08:54:02.415Z,74.30
2022-09-30T08:56:34.642Z,74.20
2022-09-30T08:59:38.012Z,73.90
2022-09-30T09:02:33.276Z,73.90
2022-09-30T09:05:05.449Z,73.90
2022-09-30T09:08:10.268Z,73.90
2022-09-30T09:10:48.401Z,73.50
2022-09-30T09:13:44.094Z,73.60
2022-09-30T09:16:38.146Z,73.30
2022-09-30T09:19:23.560Z,73.10
2022-09-30T09:21:57.272Z,72.70
2022-09-30T09:24:45.874Z,72.20
2022-09-30T09:27:26.365Z,71.90
2022-09-30T09:30:07.800Z,71.60
2022-09-30T09:32:36.541Z,71.40
2022-09-30T09:35:39.729Z,71.40
2022-09-30T09:38:47.985Z,70.40
2022-09-30T09:41:41.851Z,70.00
2022-09-30T09:44:30.502Z,70.00
2022-09-30T09:47:14.182Z,69.20
2022-09-30T09:49:45.903Z,69.30
2022-09-30T09:52:12.845Z,69.10
2022-09-30T09:54:56.695Z,68.80
2022-09-30T09:57:32.256Z,67.90
2022-09-30T10:00:26.380Z,68.10
2022-09-30T10:03:09.323Z,67.40
2022-09-30T10:05:39.936Z,66.90
2022-09-30T10:08:21.315Z,67.40
2022-09-30T10:10:55.277Z,66.40
2022-09-30T10:13:26.151Z,66.50
2022-09-30T10:15:59.079Z,66.60
2022-09-30T10:18:36.498Z,66.10
2022-09-30T10:21:21.138Z,65.80
2022-09-30T10:23:48.268Z,65.60
2022-09-30T10:26:15.004Z,65.90
2022-09-30T10:28:59.307Z,65.70
2022-09-30T10:31:35.139Z,65.10
2022-09-30T10:34:15.170Z,65.00
2022-09-30T10:36:44.619Z,64.90
2022-09-30T10:39:30.790Z,64.60
2022-09-30T10:42:15.529Z,63.60
2022-09-30T10:45:20.808Z,63.90
2022-09-30T10:47:53.370Z,63.10
2022-09-30T10:50:27.667Z,63.90
2022-09-30T10:53:01.571Z,63.90
2022-09-30T10:55:33.944Z,63.80
2022-09-30T10:58:29.586Z,63.20
2022-09-30T11:01:32.565Z,62.60
2022-09-30T11:04:26.348Z,61.80
2022-09-30T11:07:13.445Z,62.10
2022-09-30T11:09:55.655Z,61.80
2022-09-30T11:12:49.152Z,61.60
2022-09-30T11:15:32.539Z,61.30
2022-09-30T11:18:08.501Z,61.90
2022-09-30T11:20:43.338Z,62.30
2022-09-30T11:23:42.881Z,61.80
2022-09-30T11:26:25.422Z,60.50
2022-09-30T11:29:36.131Z,61.30
2022-09-30T11:32:05.695Z,61.00
2022-09-30T11:35:01.855Z,61.30
2022-09-30T11:37:37.276Z,60.30
2022-09-30T11:40:48.005Z,60.70
2022-09-30T11:43:38.006Z,60.00
2022-09-30T11:46:22.746Z,60.80
2022-09-30T11:49:29.561Z,60.50
2022-09-30T11:52:06.214Z,59.20
2022-09-30T11:55:02.749Z,59.40
2022-09-30T11:58:28.742Z,58.50
2022-09-30T12:01:28.385Z,58.40
2022-09-30T12:04:10.114Z,58.60
2022-09-30T12:06:46.166Z,58.70
2022-09-30T12:09:37.328Z,58.50
2022-09-30T12:12:16.466Z,58.50
2022-09-30T12:15:06.438Z,58.10
2022-09-30T12:18:15.726Z,57.30
2022-09-30T12:20:51.654Z,57.90
2022-09-30T12:23:29.582Z,58.00
2022-09-30T12:26:00.335Z,57.90
2022-09-30T12:28:52.241Z,58.00
2022-09-30T12:31:33.716Z,57.90
2022-09-30T12:34:15.869Z,57.70
2022-09-30T12:37:20.048Z,57.30
2022-09-30T12:40:22.555Z,56.50
2022-09-30T12:43:30.268Z,56.30
2022-09-30T12:46:29.682Z,56.20
2022-09-30T12:49:04.753Z,56.00
2022-09-30T12:51:34.832Z,56.70
2022-09-30T12:54:25.641Z,56.50
2022-09-30T12:57:03.286Z,55.90
2022-09-30T12:59:38.426Z,56.30
2022-09-30T13:02:08.128Z,56.50
2022-09-30T13:04:39.056Z,56.50
2022-09-30T13:07:14.003Z,56.60
2022-09-30T13:10:22.112Z,57.10
2022-09-30T13:12:52.614Z,55.50
2022-09-30T13:15:28.369Z,56.40
2022-09-30T13:17:55.254Z,56.40
2022-09-30T13:21:06.848Z,55.80
2022-09-30T13:23:46.221Z,54.60
2022-09-30T13:26:46.351Z,54.60
2022-09-30T13:29:19.651Z,54.20
2022-09-30T13:31:49.259Z,55.10
2022-09-30T13:34:33.154Z,55.10
2022-09-30T13:37:02.357Z,54.70
2022-09-30T13:39:45.983Z,55.20
2022-09-30T13:42:24.670Z,55.20
2022-09-30T13:45:05.119Z,54.80
2022-09-30T13:47:40.339Z,54.90
2022-09-30T13:50:26.298Z,54.90
2022-09-30T13:53:12.546Z,54.50
2022-09-30T13:55:48.366Z,54.30
2022-09-30T13:58:47.746Z,54.80
2022-09-30T14:01:43.456Z,54.90
2022-09-30T14:04:32.277Z,54.30
2022-09-30T14:07:25.338Z,54.10
2022-09-30T14:10:14.132Z,54.70
2022-09-30T14:13:08.872Z,54.10
2022-09-30T14:15:46.970Z,53.70
2022-09-30T14:18:44.319Z,54.40
2022-09-30T14:21:54.664Z,53.50
2022-09-30T14:24:37.306Z,53.30
2022-09-30T14:27:31.805Z,53.70
2022-09-30T14:30:24.063Z,53.80
2022-09-30T14:33:01.664Z,53.40
2022-09-30T14:35:35.114Z,53.40
2022-09-30T14:38:14.818Z,53.10
2022-09-30T14:40:51.755Z,53.00
2022-09-30T14:43:24.194Z,53.40
2022-09-30T14:45:55.563Z,53.00
2022-09-30T14:48:31.867Z,53.10
2022-09-30T14:51:09.732Z,53.10
2022-09-30T14:53:55.285Z,52.80
2022-09-30T14:56:31.810Z,52.50
2022-09-30T14:59:00.925Z,53.00
2022-09-30T15:01:35.199Z,53.30
2022-09-30T15:04:14.014Z,53.00
2022-09-30T15:06:47.794Z,52.70
2022-09-30T15:09:34.800Z,52.60
2022-09-30T15:12:23.223Z,52.10
2022-09-30T15:14:59.220Z,52.20
2022-09-30T15:17:27.299Z,52.50
2022-09-30T15:19:56.540Z,52.70
2022-09-30T15:22:27.357Z,52.60
2022-09-30T15:24:55.397Z,52.50
2022-09-30T15:27:27.906Z,52.60
2022-09-30T15:30:01.435Z,52.50
2022-09-30T15:32:35.094Z,52.60
2022-09-30T15:35:12.459Z,52.60
2022-09-30T15:37:39.795Z,52.10
2022-09-30T15:40:39.306Z,52.90
2022-09-30T15:43:11.391Z,52.30
2022-09-30T15:45:43.334Z,52.70
2022-09-30T15:48:36.077Z,52.80
2022-09-30T15:51:27.812Z,52.60
2022-09-30T15:54:00.322Z,52.80
2022-09-30T15:56:37.074Z,53.30
2022-09-30T15:59:12.581Z,53.10
2022-09-30T16:01:48.552Z,52.90
2022-09-30T16:04:15.382Z,52.60
2022-09-30T16:06:49.149Z,53.10
2022-09-30T16:09:30.228Z,53.70
2022-09-30T16:12:12.172Z,52.90
2022-09-30T16:14:55.714Z,52.90
2022-09-30T16:17:33.469Z,53.20
2022-09-30T16:20:20.907Z,53.90
2022-09-30T16:22:48.175Z,53.50
2022-09-30T16:25:33.835Z,53.60
2022-09-30T16:28:14.988Z,53.40
2022-09-30T16:30:45.360Z,53.60
2022-09-30T16:33:15.383Z,54.00
2022-09-30T16:35:44.129Z,54.10
2022-09-30T16:38:15.920Z,54.20
2022-09-30T16:40:43.001Z,54.20
2022-09-30T16:43:10.892Z,54.20
2022-09-30T16:45:39.978Z,54.30
2022-09-30T16:48:15.894Z,54.50
2022-09-30T16:51:14.762Z,54.40
2022-09-30T16:53:41.858Z,54.40
2022-09-30T16:56:19.245Z,54.70
2022-09-30T16:58:47.385Z,54.80
2022-09-30T17:01:21.396Z,55.00
2022-09-30T17:03:48.874Z,55.00
2022-09-30T17:06:19.070Z,55.10
2022-09-30T17:08:48.518Z,55.20
2022-09-30T17:11:15.304Z,55.40
2022-09-30T17:13:42.624Z,55.50
2022-09-30T17:16:09.435Z,55.50
2022-09-30T17:18:36.299Z,55.60
2022-09-30T17:21:03.415Z,55.70
2022-09-30T17:23:30.205Z,56.00
2022-09-30T17:25:57.966Z,55.90
2022-09-30T17:28:24.775Z,56.00
2022-09-30T17:30:52.054Z,56.10
2022-09-30T17:33:20.036Z,56.20
2022-09-30T17:36:01.345Z,56.30
2022-09-30T17:38:29.299Z,56.50
2022-09-30T17:41:15.296Z,56.50
2022-09-30T17:43:42.330Z,56.60
2022-09-30T17:46:09.202Z,56.70
2022-09-30T17:48:37.241Z,56.80
2022-09-30T17:51:03.984Z,56.90
2022-09-30T17:53:30.760Z,57.00
2022-09-30T17:56:06.633Z,57.10
2022-09-30T17:58:33.422Z,57.30
2022-09-30T18:01:07.722Z,57.30
2022-09-30T18:03:34.735Z,57.30
2022-09-30T18:06:01.939Z,57.30
2022-09-30T18:08:28.905Z,57.40
2022-09-30T18:10:59.664Z,56.90
2022-09-30T18:13:27.881Z,57.40
2022-09-30T18:15:59.631Z,57.50
2022-09-30T18:18:26.430Z,57.50
2022-09-30T18:20:53.186Z,57.60
2022-09-30T18:23:20.171Z,57.60
2022-09-30T18:25:49.663Z,58.20
2022-09-30T18:28:17.304Z,57.70
2022-09-30T18:30:44.124Z,57.80
2022-09-30T18:33:10.988Z,57.70
2022-09-30T18:35:39.586Z,57.70
2022-09-30T18:38:06.920Z,57.90
2022-09-30T18:40:34.055Z,57.80
2022-09-30T18:43:03.246Z,57.80
2022-09-30T18:45:36.667Z,57.90
2022-09-30T18:48:04.351Z,57.90
2022-09-30T18:50:32.666Z,58.00
2022-09-30T18:53:04.615Z,58.00
2022-09-30T18:55:33.942Z,58.10
2022-09-30T18:58:00.660Z,58.10
2022-09-30T19:00:29.533Z,58.20
2022-09-30T19:02:57.319Z,58.20
2022-09-30T19:05:24.444Z,58.30
2022-09-30T19:07:53.593Z,58.40
2022-09-30T19:10:22.193Z,58.50
2022-09-30T19:12:49.620Z,58.50
2022-09-30T19:15:16.722Z,58.60
2022-09-30T19:17:47.054Z,58.60
2022-09-30T19:20:17.981Z,58.80
2022-09-30T19:22:45.588Z,58.80
2022-09-30T19:25:13.787Z,58.90
2022-09-30T19:27:42.633Z,59.00
2022-09-30T19:30:12.814Z,59.10
2022-09-30T19:32:40.537Z,59.10
2022-09-30T19:35:10.555Z,59.30
2022-09-30T19:37:38.307Z,59.30
2022-09-30T19:40:18.779Z,59.30
2022-09-30T19:42:49.026Z,59.40
2022-09-30T19:45:16.771Z,59.40
2022-09-30T19:47:43.964Z,59.40
2022-09-30T19:50:10.774Z,59.50
2022-09-30T19:52:47.531Z,59.50
2022-09-30T19:55:20.508Z,59.60
2022-09-30T19:57:47.245Z,59.60
2022-09-30T20:00:14.008Z,60.20
2022-09-30T20:02:41.226Z,59.60
2022-09-30T20:05:08.678Z,59.70
2022-09-30T20:07:35.454Z,59.70
2022-09-30T20:10:02.375Z,59.80
2022-09-30T20:12:29.303Z,59.80
2022-09-30T20:15:14.852Z,59.90
2022-09-30T20:17:41.577Z,60.00
2022-09-30T20:20:27.600Z,60.00
2022-09-30T20:22:54.423Z,60.00
2022-09-30T20:25:21.242Z,60.10
2022-09-30T20:27:52.130Z,60.10
2022-09-30T20:30:20.299Z,60.30
2022-09-30T20:32:47.044Z,60.30
2022-09-30T20:35:13.953Z,60.40
2022-09-30T20:37:42.047Z,60.50
2022-09-30T20:40:09.678Z,60.60
2022-09-30T20:42:38.501Z,60.70
2022-09-30T20:45:10.154Z,60.80
2022-09-30T20:47:38.512Z,60.90
2022-09-30T20:50:07.034Z,60.90
2022-09-30T20:52:34.469Z,61.00
2022-09-30T20:55:01.281Z,61.00
2022-09-30T20:57:32.367Z,61.10
2022-09-30T21:00:00.007Z,61.20
2022-09-30T21:02:28.231Z,61.20
2022-09-30T21:04:57.619Z,61.30
2022-09-30T21:07:25.978Z,61.30
2022-09-30T21:09:53.057Z,61.40
2022-09-30T21:12:19.934Z,61.50
2022-09-30T21:14:46.715Z,62.10
2022-09-30T21:17:13.513Z,61.50
2022-09-30T21:19:40.269Z,61.60
2022-09-30T21:22:07.690Z,61.70
2022-09-30T21:24:34.426Z,61.80
2022-09-30T21:27:05.636Z,61.80
2022-09-30T21:29:32.832Z,62.00
2022-09-30T21:31:59.790Z,61.90
2022-09-30T21:34:26.800Z,62.00
2022-09-30T21:36:53.717Z,62.10
2022-09-30T21:39:20.498Z,62.10
2022-09-30T21:41:47.719Z,62.20
2022-09-30T21:44:15.958Z,62.40
2022-09-30T21:46:48.209Z,62.40
2022-09-30T21:49:21.697Z,62.40
2022-09-30T21:51:48.446Z,62.50
2022-09-30T21:54:15.601Z,62.60
2022-09-30T21:56:43.617Z,62.70
2022-09-30T21:59:11.968Z,62.80
2022-09-30T22:01:40.111Z,62.90
2022-09-30T22:04:07.984Z,63.00
2022-09-30T22:06:35.166Z,63.10
2022-09-30T22:09:02.136Z,63.10
2022-09-30T22:11:31.090Z,63.20
2022-09-30T22:13:59.887Z,63.30
2022-09-30T22:16:34.932Z,63.30
2022-09-30T22:19:05.475Z,63.50
2022-09-30T22:21:35.427Z,64.20
2022-09-30T22:24:05.821Z,63.60
2022-09-30T22:26:33.304Z,63.60
2022-09-30T22:29:11.066Z,63.60
2022-09-30T22:31:39.185Z,63.90
2022-09-30T22:34:29.294Z,63.80
2022-09-30T22:37:14.348Z,63.90
2022-09-30T22:39:41.256Z,63.80
2022-09-30T22:42:08.031Z,63.90
2022-09-30T22:44:37.147Z,64.00
2022-09-30T22:47:04.767Z,64.30
2022-09-30T22:49:32.608Z,64.30
2022-09-30T22:52:00.975Z,64.40
2022-09-30T22:54:29.152Z,64.40
2022-09-30T22:56:58.524Z,64.60
2022-09-30T22:59:26.457Z,64.60
2022-09-30T23:01:53.246Z,64.70
2022-09-30T23:04:20.543Z,64.80
2022-09-30T23:06:50.118Z,64.80
2022-09-30T23:09:18.960Z,65.00
2022-09-30T23:11:46.094Z,65.10
2022-09-30T23:14:13.820Z,65.20
2022-09-30T23:16:41.278Z,65.40
2022-09-30T23:19:08.298Z,65.40
2022-09-30T23:21:35.412Z,65.60
2022-09-30T23:24:02.964Z,65.60
2022-09-30T23:26:31.184Z,65.70
2022-09-30T23:29:01.175Z,65.80
2022-09-30T23:31:29.371Z,66.00
2022-09-30T23:33:59.718Z,66.00
2022-09-30T23:36:30.002Z,66.10
2022-09-30T23:39:21.798Z,66.20
2022-09-30T23:41:50.223Z,66.30
2022-09-30T23:44:20.618Z,66.20
2022-09-30T23:47:07.212Z,66.30
2022-09-30T23:49:37.566Z,66.40
2022-09-30T23:52:10.499Z,66.50
2022-09-30T23:54:41.109Z,66.60
2022-09-30T23:57:08.322Z,66.60
2022-09-30T23:59:35.078Z,66.70
